Flight Track Log - Related Links

Times and Time Zones

All times are in EDT time to prevent confusion due to time zone crossing. See the N779NC flight status page for this flight to view local times or setup timezone preferences in your user account.

Time Position Orientation Groundspeed Altitude Reporting Facility
EDT Latitude Longitude Course Direction KTS MPH feet Rate Location/Type
Sun 08:42:00 AM 36.0375 -86.5965 149° Southeast  Level Estimated
Sun 08:43:00 AM 35.9940 -86.5557 149° Southeast  Level Estimated
Sun 08:44:00 AM 35.9435 -86.5302 158° South  Level FlightAware Approximate
Sun 08:45:00 AM 35.9001 -86.4893 145° Southeast  Level Estimated
Sun 08:46:00 AM 35.8537 -86.4538 148° Southeast  Level FlightAware Approximate
Sun 08:47:00 AM 35.8073 -86.4183 148° Southeast  Level FlightAware Approximate
Sun 08:48:00 AM 35.7640 -86.3773 152° Southeast  Level Estimated
Sun 08:49:00 AM 35.7207 -86.3363 136° Southeast  Level Estimated
Sun 08:50:00 AM 35.6781 -86.2943 141° Southeast  Level FlightAware Approximate
Sun 08:51:00 AM 35.6348 -86.2534 136° Southeast  Level Estimated
Sun 08:52:00 AM 35.5928 -86.2105 140° Southeast  Level FlightAware Approximate
Sun 08:53:00 AM 35.5454 -86.1620 141° Southeast  Level FlightAware Approximate
Sun 08:54:00 AM 35.5030 -86.1197 141° Southeast  Level FlightAware Approximate
Sun 08:55:00 AM 35.4602 -86.0782 147° Southeast  Level FlightAware Approximate
Sun 08:56:00 AM 35.4145 -86.0416 147° Southeast  Level FlightAware Approximate
Sun 08:57:00 AM 35.3680 -86.0065 151° Southeast  Level FlightAware Approximate
Sun 08:58:00 AM 35.3201 -85.9745 151° Southeast  Level FlightAware Approximate
Sun 08:59:00 AM 35.2735 -85.9401 141° Southeast  Level FlightAware Approximate
Sun 09:00:00 AM 35.2309 -85.8984 151° Southeast  Level FlightAware Approximate
Sun 09:01:00 AM 35.1830 -85.8663 151° Southeast  Level FlightAware Approximate
Sun 09:02:00 AM 35.1350 -85.8344 151° Southeast  Level FlightAware Approximate
Sun 09:03:00 AM 35.0871 -85.8024 151° Southeast  Level FlightAware Approximate
Sun 09:04:00 AM 35.0392 -85.7705 151° Southeast  Level FlightAware Approximate
Sun 09:05:00 AM 34.9962 -85.7296 141° Southeast  Level FlightAware Approximate
Sun 09:06:00 AM 34.9514 -85.6918 147° Southeast  Level FlightAware Approximate
Sun 09:07:00 AM 34.9054 -85.6560 147° Southeast  Level FlightAware Approximate
Sun 09:08:00 AM 34.8593 -85.6202 147° Southeast  Level FlightAware Approximate
Sun 09:09:00 AM 34.8127 -85.5856 150° Southeast  Level FlightAware Approximate
Sun 09:09:33 AM 36.1167 -86.6833 150° Southeast 144 166 1,500  Level Nashville TRACON
Sun 09:10:00 AM 34.7653 -85.5527 150° Southeast  Level FlightAware Approximate
Sun 09:10:52 AM 36.0333 -86.6833 180° South 236 272 3,300  Level Nashville TRACON
Sun 09:11:00 AM 34.6948 -85.5037 150° Southeast  Level FlightAware Approximate
Sun 09:12:00 AM 34.6243 -85.4548 150° Southeast  Level FlightAware Approximate
Sun 09:12:50 AM 35.9028 -86.6464 167° South 292 336 7,300  Level Memphis Center
Sun 09:13:00 AM 34.5537 -85.4060 150° Southeast  Level FlightAware Approximate
Sun 09:13:50 AM 35.8308 -86.6111 158° South 287 330 9,800  Level Memphis Center
Sun 09:14:00 AM 34.4831 -85.3573 150° Southeast  Level FlightAware Approximate
Sun 09:14:50 AM 35.7483 -86.5714 159° South 303 349 11,200  Level Memphis Center
Sun 09:15:50 AM 35.6669 -86.4983 144° Southeast 324 373 13,500 1,900 Climbing Memphis Center
Sun 09:16:50 AM 35.5872 -86.4206 142° Southeast 351 404 15,000 1,700 Climbing Memphis Center
Sun 09:17:50 AM 35.5053 -86.3378 141° Southeast 362 417 16,900 1,544 Climbing Memphis Center
Sun 09:19:06 AM 35.4128 -86.2431 140° Southeast 396 456 18,500 1,279 Climbing Atlanta Center
Sun 09:20:06 AM 35.3225 -86.1542 141° Southeast 401 461 19,800 1,300 Climbing Atlanta Center
Sun 09:21:06 AM 35.2256 -86.0856 150° Southeast 407 468 21,100 1,350 Climbing Atlanta Center
Sun 09:22:06 AM 35.1222 -86.0244 154° Southeast 407 468 22,500 1,300 Climbing Atlanta Center
Sun 09:23:06 AM 35.0211 -85.9639 154° Southeast 407 468 23,700 1,150 Climbing Atlanta Center
Sun 09:24:06 AM 34.9053 -85.8878 152° Southeast 418 481 24,800 650 Climbing Atlanta Center
Sun 09:25:06 AM 34.8039 -85.8222 152° Southeast 436 502 25,000 100 Climbing Atlanta Center
Sun 09:26:06 AM 34.7011 -85.7214 141° Southeast 462 532 25,000  Level Atlanta Center
Sun 09:27:06 AM 34.6025 -85.6108 137° Southeast 475 547 25,000 -1,350 Level Atlanta Center
Sun 09:28:06 AM 34.5161 -85.4958 132° Southeast 470 541 22,300 -2,750 Descending Atlanta Center
Sun 09:29:06 AM 34.4339 -85.3911 134° Southeast 445 512 19,500 -2,650 Descending Atlanta Center
Sun 09:30:06 AM 34.3472 -85.3017 140° Southeast 419 482 17,000 -2,700 Descending Atlanta Center
Sun 09:31:06 AM 34.2603 -85.2225 143° Southeast 392 451 14,100 -1,950 Descending Atlanta Center
Sun 09:32:06 AM 34.1817 -85.1436 140° Southeast 370 426 13,100 -550 Descending Atlanta Center
Sun 09:33:06 AM 34.1156 -85.0575 133° Southeast 333 383 13,000 -300 Descending Atlanta Center
Sun 09:34:06 AM 34.0642 -84.9767 127° Southeast 307 353 12,500 -1,314 Descending Atlanta Center
Sun 09:35:55 AM 33.9333 -84.9167 159° South 275 316 9,300 -1,243 Descending Atlanta TRACON
Sun 09:36:55 AM 33.8500 -84.9167 180° South 280 322 9,000 -200 Descending Atlanta TRACON
Sun 09:37:55 AM 33.7833 -84.9167 180° South 274 315 8,900 -750 Descending Atlanta TRACON
Sun 09:38:55 AM 33.7000 -84.9167 180° South 276 318 7,500 -1,100 Descending Atlanta TRACON
Sun 09:39:55 AM 33.6500 -84.8667 140° Southeast 250 288 6,700 -789 Descending Atlanta TRACON
Sun 09:40:49 AM 33.6333 -84.8000 107° East 237 273 6,000 -684 Descending Atlanta TRACON
Sun 09:41:49 AM 33.6333 -84.7333 90° East 214 246 5,400 -800 Descending Atlanta TRACON
Sun 09:42:49 AM 33.6333 -84.6667 90° East 203 234 4,400 -1,000 Descending Atlanta TRACON

Login

Don't have an account? Register now (free) for customized features, flight alerts, and more!